createdAt,value
2018-01-31T01:52:20.386Z,98592.63
2018-01-31T01:52:52.101Z,98221.47
2018-01-31T01:55:20.424Z,98194.25
2018-01-31T01:57:48.753Z,98183.73
2018-01-31T02:00:17.820Z,98193.86
2018-01-31T02:02:46.131Z,98185.51
2018-01-31T02:05:15.198Z,98180.14
2018-01-31T02:07:43.515Z,98163.91
2018-01-31T02:10:12.593Z,98158.06
2018-01-31T02:12:40.888Z,98155.54
2018-01-31T02:15:09.970Z,98154.03
2018-01-31T02:17:38.281Z,98136.76
2018-01-31T02:20:06.590Z,98137.43
2018-01-31T02:22:34.921Z,98119.23
2018-01-31T02:25:03.219Z,98110.06
2018-01-31T02:27:31.515Z,98112.25
2018-01-31T02:29:59.824Z,98107.41
2018-01-31T02:32:28.893Z,98109.30
2018-01-31T02:34:58.420Z,98099.52
2018-01-31T02:37:26.716Z,98092.78
2018-01-31T02:40:01.314Z,98081.34
2018-01-31T02:42:29.604Z,98077.09
2018-01-31T02:44:59.089Z,98072.27
2018-01-31T02:47:27.396Z,98064.50
2018-01-31T02:49:56.473Z,98060.11
2018-01-31T02:52:24.781Z,98057.28
2018-01-31T02:54:53.084Z,98056.95
2018-01-31T02:57:21.389Z,98053.61
2018-01-31T02:59:49.697Z,98038.98
2018-01-31T03:02:17.993Z,98037.14
2018-01-31T03:04:46.641Z,98035.25
2018-01-31T03:07:14.949Z,98026.51
2018-01-31T03:09:43.268Z,98019.98
2018-01-31T03:12:11.583Z,98017.38
2018-01-31T03:14:39.886Z,98010.03
2018-01-31T03:17:08.188Z,98011.69
2018-01-31T03:19:36.475Z,98004.20
2018-01-31T03:22:04.796Z,97990.34
2018-01-31T03:24:33.084Z,97978.91
2018-01-31T03:27:01.428Z,97984.28
2018-01-31T03:29:29.730Z,97975.39
2018-01-31T03:31:58.035Z,97969.62
2018-01-31T03:34:26.335Z,97962.44
2018-01-31T03:36:54.641Z,97957.19
2018-01-31T03:39:22.939Z,97958.40
2018-01-31T03:41:52.276Z,97947.59
2018-01-31T03:44:20.574Z,97940.57
2018-01-31T03:46:48.888Z,97933.44
2018-01-31T03:49:17.230Z,97933.45
2018-01-31T03:51:45.542Z,97931.67
2018-01-31T03:54:14.603Z,97937.16
2018-01-31T03:56:42.925Z,97933.24
2018-01-31T03:59:11.217Z,97922.32
2018-01-31T04:01:39.515Z,97923.80
2018-01-31T04:04:07.834Z,97914.17
2018-01-31T04:06:36.142Z,97916.17
2018-01-31T04:09:04.485Z,97901.02
2018-01-31T04:11:33.586Z,97898.71
2018-01-31T04:14:01.903Z,97895.48
2018-01-31T04:16:30.212Z,97895.49
2018-01-31T04:18:58.511Z,97892.66
2018-01-31T04:21:26.866Z,97880.70
2018-01-31T04:23:55.193Z,97878.31
2018-01-31T04:26:23.510Z,97870.59
2018-01-31T04:28:51.808Z,97868.27
2018-01-31T04:31:20.111Z,97861.02
2018-01-31T04:33:48.409Z,97855.73
2018-01-31T04:36:16.714Z,97848.23
2018-01-31T04:38:45.027Z,97845.41
2018-01-31T04:41:14.109Z,97844.66
2018-01-31T04:43:42.425Z,97834.66
2018-01-31T04:46:10.732Z,97831.02
2018-01-31T04:48:39.046Z,97827.73
2018-01-31T04:51:07.351Z,97821.92
2018-01-31T04:53:35.667Z,97820.66
2018-01-31T04:56:03.985Z,97816.16
2018-01-31T04:58:33.066Z,97808.18
2018-01-31T05:01:01.367Z,97804.02
2018-01-31T05:03:30.459Z,97802.33
2018-01-31T05:05:58.786Z,97795.86
2018-01-31T05:08:27.093Z,97789.26
2018-01-31T05:10:55.410Z,97781.73
2018-01-31T05:13:23.723Z,97775.89
2018-01-31T05:15:52.046Z,97769.59
2018-01-31T05:18:20.348Z,97766.23
2018-01-31T05:20:48.673Z,97765.35
2018-01-31T05:23:16.975Z,97761.98
2018-01-31T05:25:45.306Z,97759.53
2018-01-31T05:28:13.606Z,97754.92
2018-01-31T05:30:41.937Z,97744.34
2018-01-31T05:33:10.257Z,97742.27
2018-01-31T05:35:38.573Z,97741.02
2018-01-31T05:38:06.872Z,97739.31
2018-01-31T05:40:35.190Z,97741.02
2018-01-31T05:43:03.492Z,97726.66
2018-01-31T05:45:32.551Z,97725.41
2018-01-31T05:48:00.880Z,97725.34
2018-01-31T05:50:29.207Z,97720.67
2018-01-31T05:52:57.517Z,97716.94
2018-01-31T05:55:25.831Z,97716.92
2018-01-31T05:57:54.132Z,97710.12
2018-01-31T06:00:22.439Z,97707.16
2018-01-31T06:02:50.757Z,97701.70
2018-01-31T06:05:19.066Z,97696.60
2018-01-31T06:07:47.377Z,97683.50
2018-01-31T06:10:15.681Z,97678.84
2018-01-31T06:12:43.993Z,97668.67
2018-01-31T06:15:12.294Z,97665.30
2018-01-31T06:17:40.596Z,97659.38
2018-01-31T06:20:08.992Z,97657.27
2018-01-31T06:22:37.298Z,97647.92
2018-01-31T06:25:05.609Z,97642.84
2018-01-31T06:27:33.930Z,97640.70
2018-01-31T06:30:03.079Z,97638.58
2018-01-31T06:32:31.402Z,97630.10
2018-01-31T06:34:59.715Z,97629.69
2018-01-31T06:37:28.028Z,97614.83
2018-01-31T06:39:56.385Z,97616.09
2018-01-31T06:42:24.661Z,97613.97
2018-01-31T06:44:52.985Z,97613.95
2018-01-31T06:47:21.287Z,97608.86
2018-01-31T06:49:49.595Z,97613.12
2018-01-31T06:52:17.903Z,97606.30
2018-01-31T06:54:46.221Z,97603.33
2018-01-31T06:57:14.528Z,97599.52
2018-01-31T06:59:42.853Z,97590.16
2018-01-31T07:02:11.152Z,97587.62
2018-01-31T07:04:39.466Z,97586.77
2018-01-31T07:07:08.550Z,97579.13
2018-01-31T07:09:36.862Z,97569.32
2018-01-31T07:12:05.184Z,97567.16
2018-01-31T07:14:34.885Z,97561.63
2018-01-31T07:17:03.193Z,97563.31
2018-01-31T07:19:31.503Z,97554.37
2018-01-31T07:21:59.818Z,97553.93
2018-01-31T07:24:28.155Z,97552.66
2018-01-31T07:26:56.459Z,97541.59
2018-01-31T07:29:25.580Z,97545.89
2018-01-31T07:31:54.827Z,97539.90
2018-01-31T07:34:23.554Z,97544.56
2018-01-31T07:36:51.809Z,97541.15
2018-01-31T07:39:20.074Z,97532.62
2018-01-31T07:41:48.751Z,97524.96
2018-01-31T07:44:17.021Z,97524.13
2018-01-31T07:46:45.289Z,97517.34
2018-01-31T07:49:13.613Z,97504.56
2018-01-31T07:51:42.594Z,97503.28
2018-01-31T07:54:10.855Z,97501.54
2018-01-31T07:56:40.214Z,97494.73
2018-01-31T07:59:09.854Z,97488.37
2018-01-31T08:01:38.121Z,97481.16
2018-01-31T08:04:06.391Z,97475.62
2018-01-31T08:06:34.653Z,97474.27
2018-01-31T08:09:04.098Z,97471.78
2018-01-31T08:11:32.382Z,97470.90
2018-01-31T08:14:00.642Z,97466.19
2018-01-31T08:16:28.924Z,97466.17
2018-01-31T08:18:57.185Z,97457.17
2018-01-31T08:21:26.742Z,97457.18
2018-01-31T08:23:54.985Z,97459.78
2018-01-31T08:26:23.258Z,97448.22
2018-01-31T08:28:51.522Z,97445.60
2018-01-31T08:31:19.787Z,97434.58
2018-01-31T08:33:48.056Z,97434.09
2018-01-31T08:36:17.086Z,97436.64
2018-01-31T08:38:45.368Z,97432.84
2018-01-31T08:41:13.626Z,97434.19
2018-01-31T08:43:41.882Z,97434.24
2018-01-31T08:46:10.161Z,97426.98
2018-01-31T08:48:38.419Z,97426.08
2018-01-31T08:51:06.685Z,97426.12
2018-01-31T08:53:34.945Z,97427.72
2018-01-31T08:56:03.213Z,97416.71
2018-01-31T08:58:31.482Z,97405.59
2018-01-31T09:00:59.750Z,97406.83
2018-01-31T09:03:28.013Z,97403.45
2018-01-31T09:05:56.289Z,97397.44
2018-01-31T09:08:25.368Z,97390.59
2018-01-31T09:10:53.643Z,97381.16
2018-01-31T09:13:21.905Z,97376.01
2018-01-31T09:15:50.175Z,97368.42
2018-01-31T09:18:19.212Z,97357.78
2018-01-31T09:20:47.481Z,97352.23
2018-01-31T09:23:15.753Z,97342.30
2018-01-31T09:25:44.028Z,97351.14
2018-01-31T09:28:12.290Z,97343.92
2018-01-31T09:30:40.558Z,97336.28
2018-01-31T09:33:08.843Z,97342.63
2018-01-31T09:35:37.110Z,97343.13
2018-01-31T09:38:05.373Z,97346.05
2018-01-31T09:40:33.650Z,97358.07
2018-01-31T09:43:01.934Z,97348.27
2018-01-31T09:45:30.202Z,97337.73
2018-01-31T09:47:58.462Z,97331.72
2018-01-31T09:50:27.798Z,97321.99
2018-01-31T09:52:58.282Z,97320.69
2018-01-31T09:55:28.169Z,97312.18
2018-01-31T09:57:57.325Z,97309.96
2018-01-31T10:00:25.921Z,97307.88
2018-01-31T10:02:54.185Z,97308.70
2018-01-31T10:05:22.449Z,97311.76
2018-01-31T10:07:50.714Z,97311.47
2018-01-31T10:10:18.979Z,97304.69
2018-01-31T10:12:47.245Z,97306.78
2018-01-31T10:15:15.509Z,97298.67
2018-01-31T10:17:43.766Z,97299.44
2018-01-31T10:20:12.043Z,97291.84
2018-01-31T10:22:40.311Z,97282.48
2018-01-31T10:25:08.582Z,97282.48
2018-01-31T10:27:36.845Z,97274.44
2018-01-31T10:30:05.878Z,97275.22
2018-01-31T10:32:34.150Z,97262.13
2018-01-31T10:35:02.410Z,97262.86
2018-01-31T10:37:31.614Z,97263.60
2018-01-31T10:39:59.898Z,97254.59
2018-01-31T10:42:28.642Z,97255.19
2018-01-31T10:44:57.671Z,97250.02
2018-01-31T10:47:26.671Z,97248.75
2018-01-31T10:49:54.934Z,97244.92
2018-01-31T10:52:23.218Z,97233.37
2018-01-31T10:57:28.911Z,97221.06
2018-01-31T10:59:48.017Z,97219.39
2018-01-31T11:02:16.286Z,97206.05
2018-01-31T11:04:45.318Z,97207.52
2018-01-31T11:07:13.582Z,97197.28
2018-01-31T11:09:41.845Z,97184.95
2018-01-31T11:12:10.884Z,97177.22
2018-01-31T11:14:39.141Z,97173.17
2018-01-31T11:17:07.416Z,97174.06
2018-01-31T11:19:35.677Z,97162.83
2018-01-31T11:22:03.955Z,97156.12
2018-01-31T11:24:32.213Z,97153.09
2018-01-31T11:27:00.478Z,97138.53
2018-01-31T11:29:29.718Z,97138.62
2018-01-31T11:31:58.010Z,97129.53
2018-01-31T11:34:26.270Z,97125.18
2018-01-31T11:36:54.529Z,97105.81
2018-01-31T11:39:22.790Z,97105.07
2018-01-31T11:41:51.059Z,97091.56
2018-01-31T11:44:19.313Z,97083.92
2018-01-31T11:46:47.574Z,97089.80
2018-01-31T11:49:15.837Z,97080.97
2018-01-31T11:51:44.095Z,97078.44
2018-01-31T11:54:12.358Z,97078.08
2018-01-31T11:56:40.643Z,97071.69
2018-01-31T11:59:08.906Z,97080.23
2018-01-31T12:01:37.181Z,97076.09
2018-01-31T12:04:05.441Z,97054.14
2018-01-31T12:06:34.469Z,97063.91
2018-01-31T12:09:03.154Z,97058.29
2018-01-31T12:11:31.433Z,97042.47
2018-01-31T12:14:22.659Z,97040.80
2018-01-31T12:17:08.717Z,97034.74
2018-01-31T12:23:25.769Z,97002.04
2018-01-31T12:26:11.610Z,97001.71
2018-01-31T12:32:21.443Z,96988.55
2018-01-31T12:35:07.286Z,96990.45
2018-01-31T12:37:53.266Z,96983.38
2018-01-31T12:40:20.733Z,96971.02
2018-01-31T12:42:48.973Z,96967.70
2018-01-31T12:45:16.463Z,96960.64
2018-01-31T12:51:16.734Z,96950.29
2018-01-31T12:57:19.729Z,96936.74
2018-01-31T13:00:06.285Z,96937.73
2018-01-31T13:06:16.173Z,96925.42
2018-01-31T13:09:02.289Z,96920.33
2018-01-31T13:11:48.118Z,96916.20
2018-01-31T13:14:34.173Z,96910.55
2018-01-31T13:17:20.017Z,96902.95
2018-01-31T13:20:06.163Z,96909.01
2018-01-31T13:22:52.671Z,96911.23
2018-01-31T13:25:39.386Z,96906.64
2018-01-31T13:32:07.135Z,96897.58
2018-01-31T13:34:53.008Z,96885.31
2018-01-31T13:37:44.646Z,96885.64
2018-01-31T13:40:35.163Z,96872.16
2018-01-31T13:43:21.102Z,96858.32
2018-01-31T13:46:07.001Z,96857.78
2018-01-31T13:48:52.882Z,96844.92
2018-01-31T13:51:49.909Z,96840.73
2018-01-31T13:54:35.882Z,96824.17
2018-01-31T13:57:21.793Z,96814.11
2018-01-31T14:00:07.686Z,96817.16
2018-01-31T14:02:53.488Z,96798.80
2018-01-31T14:05:40.405Z,96789.08
2018-01-31T14:08:26.532Z,96778.07
2018-01-31T14:11:12.629Z,96772.86
2018-01-31T14:13:58.625Z,96763.30
2018-01-31T14:16:44.526Z,96769.11
2018-01-31T14:19:30.614Z,96766.53
2018-01-31T14:22:16.513Z,96751.19
2018-01-31T14:25:03.817Z,96747.78
2018-01-31T14:27:49.693Z,96738.00
2018-01-31T14:30:35.546Z,96745.13
2018-01-31T14:36:14.330Z,96728.14
2018-01-31T14:38:42.799Z,96714.83
2018-01-31T14:41:10.270Z,96719.17
2018-01-31T14:43:37.761Z,96715.69
2018-01-31T14:46:05.247Z,96690.88
2018-01-31T14:48:32.714Z,96684.83
2018-01-31T14:51:00.194Z,96696.88
2018-01-31T14:53:28.154Z,96692.30
2018-01-31T14:55:55.676Z,96681.55
2018-01-31T14:58:23.102Z,96676.13
2018-01-31T15:00:50.582Z,96672.74
2018-01-31T15:03:18.060Z,96670.48
2018-01-31T15:05:45.543Z,96673.24
2018-01-31T15:08:13.018Z,96659.33
2018-01-31T15:10:40.495Z,96649.11
2018-01-31T15:13:08.735Z,96641.87
2018-01-31T15:15:36.221Z,96633.28
2018-01-31T15:18:03.706Z,96618.36
2018-01-31T15:20:31.183Z,96617.28
2018-01-31T15:22:58.657Z,96616.16
2018-01-31T15:25:26.138Z,96615.31
2018-01-31T15:27:53.609Z,96612.69
2018-01-31T15:30:21.869Z,96608.23
2018-01-31T15:32:49.361Z,96607.70
2018-01-31T15:35:16.843Z,96606.77
2018-01-31T15:37:44.313Z,96600.88
2018-01-31T15:40:11.797Z,96600.44
2018-01-31T15:42:39.269Z,96597.02
2018-01-31T15:45:06.786Z,96598.03
2018-01-31T15:47:34.253Z,96585.98
2018-01-31T15:50:01.760Z,96586.92
2018-01-31T15:52:29.243Z,96575.59
2018-01-31T15:54:58.438Z,96576.27
2018-01-31T15:57:25.920Z,96573.91
2018-01-31T15:59:53.385Z,96573.88
2018-01-31T16:02:20.874Z,96570.55
2018-01-31T16:04:48.350Z,96559.56
2018-01-31T16:07:15.832Z,96562.77
2018-01-31T16:09:43.306Z,96559.02
2018-01-31T16:12:10.781Z,96553.94
2018-01-31T16:14:38.257Z,96555.88
2018-01-31T16:17:06.528Z,96547.70
2018-01-31T16:19:52.394Z,96545.92
2018-01-31T16:22:20.661Z,96545.55
2018-01-31T16:24:48.925Z,96545.08
2018-01-31T16:27:23.993Z,96546.44
2018-01-31T16:33:21.934Z,96539.77
2018-01-31T16:35:50.205Z,96529.06
2018-01-31T16:38:18.483Z,96530.98
2018-01-31T16:40:46.754Z,96526.67
2018-01-31T16:43:15.021Z,96514.35
2018-01-31T16:45:44.057Z,96517.39
2018-01-31T16:48:12.322Z,96517.40
2018-01-31T16:50:40.611Z,96525.84
2018-01-31T16:53:08.870Z,96521.93
2018-01-31T16:55:37.152Z,96525.50
2018-01-31T16:58:05.418Z,96523.75
2018-01-31T17:00:33.689Z,96522.25
2018-01-31T17:03:01.954Z,96523.48
2018-01-31T17:05:30.225Z,96525.34
2018-01-31T17:07:59.278Z,96524.69
2018-01-31T17:10:27.577Z,96520.94
2018-01-31T17:12:55.949Z,96527.70
2018-01-31T17:15:24.327Z,96528.02
2018-01-31T17:17:52.609Z,96543.48
2018-01-31T17:20:21.623Z,96551.30
2018-01-31T17:22:50.725Z,96553.97
2018-01-31T17:25:19.002Z,96553.31
2018-01-31T17:27:47.298Z,96555.87
2018-01-31T17:30:15.560Z,96559.88
2018-01-31T17:32:43.831Z,96558.61
2018-01-31T17:35:12.114Z,96553.47
2018-01-31T17:37:40.366Z,96554.98
2018-01-31T17:40:08.638Z,96562.80
2018-01-31T17:42:37.682Z,96560.00
2018-01-31T17:45:06.078Z,96560.41
2018-01-31T17:47:34.412Z,96557.00
2018-01-31T17:50:02.710Z,96559.55
2018-01-31T17:52:31.900Z,96557.97
2018-01-31T17:55:02.196Z,96553.59
2018-01-31T17:57:32.245Z,96550.16
2018-01-31T18:00:03.013Z,96543.52
2018-01-31T18:02:32.312Z,96537.12
2018-01-31T18:05:03.576Z,96539.08
2018-01-31T18:07:32.691Z,96538.64
2018-01-31T18:10:02.365Z,96525.57
2018-01-31T18:12:33.330Z,96525.25
2018-01-31T18:15:03.059Z,96525.22
2018-01-31T18:17:33.562Z,96528.16
2018-01-31T18:20:03.196Z,96530.69
2018-01-31T18:22:33.254Z,96523.05
2018-01-31T18:25:03.657Z,96521.02
2018-01-31T18:27:35.840Z,96509.46
2018-01-31T18:30:07.425Z,96511.50
2018-01-31T18:32:37.153Z,96510.65
2018-01-31T18:35:08.663Z,96508.96
2018-01-31T18:37:38.480Z,96503.97
2018-01-31T18:40:08.162Z,96499.73
2018-01-31T18:42:37.904Z,96501.78
2018-01-31T18:45:07.544Z,96497.90
2018-01-31T18:47:37.286Z,96503.39
2018-01-31T18:50:07.016Z,96501.68
2018-01-31T18:52:36.759Z,96508.86
2018-01-31T18:55:06.494Z,96500.42
2018-01-31T18:57:36.365Z,96499.95
2018-01-31T19:00:06.150Z,96506.06
2018-01-31T19:02:37.230Z,96496.53
2018-01-31T19:05:07.290Z,96501.67
2018-01-31T19:07:37.026Z,96503.34
2018-01-31T19:10:07.021Z,96510.66
2018-01-31T19:12:36.804Z,96501.26
2018-01-31T19:15:06.615Z,96503.62
2018-01-31T19:17:36.415Z,96497.59
2018-01-31T19:20:06.409Z,96492.16
2018-01-31T19:22:36.177Z,96496.70
2018-01-31T19:25:06.223Z,96498.13
2018-01-31T19:27:36.012Z,96478.70
2018-01-31T19:30:06.032Z,96470.63
2018-01-31T19:32:36.594Z,96463.98
2018-01-31T19:35:07.144Z,96459.18
2018-01-31T19:37:36.960Z,96456.50
2018-01-31T19:40:06.829Z,96455.98
2018-01-31T19:58:41.744Z,96491.42
2018-01-31T20:01:11.628Z,96486.60
2018-01-31T20:03:41.465Z,96487.44
2018-01-31T20:06:12.132Z,96481.68
2018-01-31T20:08:41.876Z,96485.50
2018-01-31T20:11:11.659Z,96485.03
2018-01-31T20:13:41.460Z,96484.91
2018-01-31T20:16:11.259Z,96479.53
2018-01-31T20:18:42.001Z,96473.96
2018-01-31T20:21:12.388Z,96470.57
2018-01-31T20:23:42.158Z,96460.39
2018-01-31T20:26:13.119Z,96455.29
2018-01-31T20:28:43.596Z,96464.84
2018-01-31T20:31:15.006Z,96453.40
2018-01-31T20:33:45.483Z,96453.25
2018-01-31T20:36:17.047Z,96459.54
2018-01-31T20:38:46.889Z,96456.59
2018-01-31T20:41:17.117Z,96442.56
2018-01-31T20:43:46.872Z,96436.58
2018-01-31T20:46:16.782Z,96444.66
2018-01-31T20:48:46.861Z,96447.59
2018-01-31T20:51:16.613Z,96443.58
2018-01-31T20:53:46.472Z,96444.85
2018-01-31T20:56:16.426Z,96440.94
2018-01-31T20:58:46.481Z,96444.33
2018-01-31T21:01:17.733Z,96447.78
2018-01-31T21:03:47.516Z,96448.98
2018-01-31T21:22:22.318Z,96414.37
2018-01-31T21:24:52.040Z,96416.41
2018-01-31T21:27:21.836Z,96414.40
2018-01-31T21:29:51.776Z,96420.61
2018-01-31T21:32:21.990Z,96424.48
2018-01-31T21:34:51.834Z,96426.91
2018-01-31T21:37:21.710Z,96421.80
2018-01-31T21:39:51.521Z,96411.98
2018-01-31T21:55:16.312Z,96410.31
2018-01-31T21:57:57.845Z,96405.20
2018-01-31T22:00:27.469Z,96402.94
2018-01-31T22:02:57.171Z,96398.88
2018-01-31T22:05:26.751Z,96401.67
2018-01-31T22:07:56.979Z,96403.12
2018-01-31T22:10:26.616Z,96401.83
2018-01-31T22:12:55.171Z,96401.19
2018-01-31T22:15:24.022Z,96400.33
2018-01-31T22:17:52.358Z,96396.02
2018-01-31T22:20:20.644Z,96400.23
2018-01-31T22:22:48.906Z,96389.59
2018-01-31T22:25:17.165Z,96393.99
2018-01-31T22:27:45.562Z,96394.50
2018-01-31T22:30:13.833Z,96397.08
2018-01-31T22:32:42.098Z,96391.72
2018-01-31T22:35:10.435Z,96393.89
2018-01-31T22:37:38.705Z,96420.80
2018-01-31T22:40:06.987Z,96452.72
2018-01-31T22:42:36.042Z,96448.63
2018-01-31T22:45:05.046Z,96420.38
2018-01-31T22:47:33.319Z,96421.89
2018-01-31T22:50:01.590Z,96425.85
2018-01-31T22:52:29.874Z,96421.88
2018-01-31T22:54:58.137Z,96420.98
2018-01-31T22:57:26.405Z,96411.64
2018-01-31T22:59:54.668Z,96402.00
2018-01-31T23:02:22.946Z,96391.37
2018-01-31T23:04:51.211Z,96387.45
2018-01-31T23:07:19.477Z,96381.52
2018-01-31T23:09:47.746Z,96377.29
2018-01-31T23:12:21.471Z,96386.52
2018-01-31T23:14:52.666Z,96394.13
2018-01-31T23:17:26.482Z,96391.17
2018-01-31T23:19:54.737Z,96391.20
2018-01-31T23:22:23.006Z,96385.70
2018-01-31T23:24:51.272Z,96389.60
2018-01-31T23:27:19.546Z,96399.19
2018-01-31T23:29:47.806Z,96397.47
2018-01-31T23:32:16.086Z,96400.58
2018-01-31T23:34:44.338Z,96400.65
2018-01-31T23:37:12.606Z,96414.99
2018-01-31T23:39:41.638Z,96406.58
2018-01-31T23:42:09.919Z,96414.56
2018-01-31T23:44:38.179Z,96414.95
2018-01-31T23:47:06.450Z,96408.19
2018-01-31T23:49:34.710Z,96410.77
2018-01-31T23:52:02.990Z,96408.59
2018-01-31T23:54:31.262Z,96414.52
2018-01-31T23:57:00.325Z,96414.91
2018-01-31T23:59:28.598Z,96422.11
